Sunday, October 22, 2017, 5:09 PM EDT
Back to Local

KMTN, Baltimore / Martin

Location: Middle River, MD, United States Lat: 39.333
Local Time: 5:09 PM EDT (21:09 GMT) Lon: -76.417
Time Zone: US/Eastern Elev: 22 ft

Show me the last for .
Show Decoded

2017-10-22 16:45 METAR KMTN 222045Z 16003KT 10SM FEW080 SCT200 22/13 A3034 =
2017-10-22 15:45 METAR KMTN 221945Z 16004KT 10SM SCT200 23/13 A3035 =
2017-10-22 14:45 METAR KMTN 221845Z 14005KT 10SM SCT200 23/12 A3036 =
2017-10-22 13:45 METAR KMTN 221745Z 13005KT 10SM SCT200 22/15 A3038 =
2017-10-22 12:45 METAR KMTN 221645Z 12004KT 10SM SCT150 21/16 A3038 =
2017-10-22 11:45 METAR KMTN 221545Z 21003KT 10SM SCT150 20/16 A3041 =
2017-10-22 10:45 METAR KMTN 221445Z 16003KT 10SM SCT150 18/16 A3042 =
2017-10-22 09:45 METAR KMTN 221345Z 00000KT 10SM FEW200 16/15 A3043 =
2017-10-22 08:45 METAR KMTN 221245Z 00000KT 10SM FEW200 13/13 A3043 =
2017-10-22 07:45 METAR KMTN 221145Z 00000KT 10SM SKC 09/09 A3041 =
2017-10-22 06:45 METAR KMTN 221045Z 00000KT 10SM SKC 09/09 A3039 =
2017-10-22 05:45 METAR KMTN 220945Z 00000KT 10SM SKC 09/09 A3039 RMK FIRST =
2017-10-22 05:33 METAR KMTN 220933Z AUTO 00000KT 10SM CLR 09/09 A3038 RMK AO2 =
2017-10-22 05:27 METAR KMTN 220927Z AUTO 29003KT 10SM CLR 08/08 A3038 RMK AO2 =
2017-10-22 05:09 METAR KMTN 220909Z AUTO 00000KT 10SM CLR 09/09 A3038 RMK AO2 =
2017-10-22 04:48 METAR KMTN 220848Z AUTO 00000KT 10SM CLR 10/10 A3037 RMK AO2 =
2017-10-22 04:27 METAR KMTN 220827Z AUTO 00000KT 10SM CLR 09/09 A3036 RMK AO2 =
2017-10-22 04:09 METAR KMTN 220809Z AUTO 00000KT 10SM CLR 09/09 A3036 RMK AO2 =
2017-10-22 03:48 METAR KMTN 220748Z AUTO 00000KT 10SM CLR 10/10 A3036 RMK AO2 =
2017-10-22 03:27 METAR KMTN 220727Z AUTO 29003KT 10SM CLR 10/10 A3036 RMK AO2 =
2017-10-22 03:09 METAR KMTN 220709Z AUTO 00000KT 10SM CLR 09/09 A3036 RMK AO2 =
2017-10-22 02:48 METAR KMTN 220648Z AUTO 00000KT 10SM CLR 10/10 A3036 RMK AO2 =
2017-10-22 02:27 METAR KMTN 220627Z AUTO 00000KT 10SM CLR 10/10 A3036 RMK AO2 =
2017-10-22 02:09 METAR KMTN 220609Z AUTO 00000KT 10SM CLR 10/10 A3036 RMK AO2 =
2017-10-22 01:48 METAR KMTN 220548Z AUTO 00000KT 10SM CLR 11/11 A3036 RMK AO2 =
2017-10-22 01:27 METAR KMTN 220527Z AUTO 00000KT 10SM CLR 11/11 A3037 RMK AO2 =
2017-10-22 01:09 METAR KMTN 220509Z AUTO 00000KT 10SM CLR 11/11 A3037 RMK AO2 =
2017-10-22 00:48 METAR KMTN 220448Z AUTO 00000KT 10SM CLR 11/11 A3037 RMK AO2 =
2017-10-22 00:27 METAR KMTN 220427Z AUTO 00000KT 10SM CLR 11/11 A3037 RMK AO2 =
2017-10-22 00:09 METAR KMTN 220409Z AUTO 00000KT 10SM CLR 11/11 A3037 RMK AO2 =
2017-10-21 23:48 METAR KMTN 220348Z AUTO 00000KT 10SM CLR 11/11 A3038 RMK AO2 =
2017-10-21 23:27 METAR KMTN 220327Z AUTO 00000KT 10SM CLR 11/11 A3038 RMK AO2 =
2017-10-21 23:09 METAR KMTN 220309Z AUTO 00000KT 10SM CLR 12/11 A3038 RMK AO2 =
2017-10-21 22:48 METAR KMTN 220248Z AUTO 00000KT 10SM CLR 12/12 A3038 RMK AO2 =
2017-10-21 22:27 METAR KMTN 220227Z AUTO 00000KT 10SM CLR 12/12 A3038 RMK AO2 =
2017-10-21 22:09 METAR KMTN 220209Z AUTO 00000KT 10SM CLR 13/12 A3038 RMK AO2 =
2017-10-21 21:45 METAR KMTN 220145Z 00000KT 10SM FEW250 13/13 A3038 RMK LAST =
2017-10-21 20:45 METAR KMTN 220045Z 00000KT 10SM BKN250 14/13 A3037 =
2017-10-21 19:45 METAR KMTN 212345Z 00000KT 10SM BKN250 16/13 A3037 =
2017-10-21 18:45 METAR KMTN 212245Z 00000KT 10SM SCT150 BKN250 17/12 A3035 =
2017-10-21 17:45 METAR KMTN 212145Z 00000KT 10SM SCT150 BKN250 19/09 A3034 =

Support USWX by starting your Amazon purchase here.